Time;durP1;ratioP1;P1;durP2;ratioP2;P2;SDS_P1;SDS_P2;PMS_P1;PMS_P2;Temp;Humidity;BMP_temperature;BMP_pressure;BME280_temperature;BME280_humidity;BME280_pressure;Samples;Min_cycle;Max_cycle;Signal;HPM_P1;HPM_P2
2022/04/27 00:00:17;;;;;;;;;;;14.30;81.30;;;;;;5016630;28;19909;-62
2022/04/27 00:02:43;;;;;;;;;;;14.30;81.60;;;;;;5016542;28;20305;-61
2022/04/27 00:05:08;;;;;;;;;;;14.30;80.80;;;;;;5016719;28;19974;-61
2022/04/27 00:07:34;;;;;;;;;;;14.30;81.20;;;;;;5016824;28;19916;-61
2022/04/27 00:10:00;;;;;;;;;;;14.30;80.90;;;;;;5016619;28;20496;-62
2022/04/27 00:12:25;;;;;;;;;;;14.30;80.30;;;;;;5016523;28;20377;-61
2022/04/27 00:14:51;;;;;;;;;;;14.30;80.40;;;;;;5016325;28;20312;-61
2022/04/27 00:17:17;;;;;;;;;;;14.40;80.10;;;;;;5016418;28;20408;-61
2022/04/27 00:19:42;;;;;;;;;;;14.40;80.30;;;;;;5016209;28;19917;-63
2022/04/27 00:22:08;;;;;;;;;;;14.30;80.00;;;;;;5016204;28;19921;-61
2022/04/27 00:24:34;;;;;;;;;;;14.40;80.30;;;;;;5015938;28;20412;-61
2022/04/27 00:26:59;;;;;;;;;;;14.20;80.80;;;;;;5016081;28;19910;-61
2022/04/27 00:29:25;;;;;;;;;;;14.20;81.40;;;;;;5014911;28;20354;-62
2022/04/27 00:31:50;;;;;;;;;;;14.20;80.50;;;;;;5016103;28;19909;-62
2022/04/27 00:34:16;;;;;;;;;;;14.20;80.80;;;;;;5015817;28;19909;-60
2022/04/27 00:36:42;;;;;;;;;;;14.20;81.10;;;;;;5015707;28;19940;-60
2022/04/27 00:39:07;;;;;;;;;;;14.30;80.90;;;;;;5015851;28;19983;-60
2022/04/27 00:41:33;;;;;;;;;;;14.20;80.60;;;;;;5016013;28;19983;-61
2022/04/27 00:43:58;;;;;;;;;;;14.20;80.60;;;;;;5014731;28;19952;-61
2022/04/27 00:46:24;;;;;;;;;;;14.20;80.80;;;;;;5015633;28;20483;-61
2022/04/27 00:48:49;;;;;;;;;;;14.20;80.50;;;;;;5015746;28;19918;-61
2022/04/27 00:51:19;;;;;;;;;;;14.20;79.70;;;;;;5015809;28;19909;-61
2022/04/27 00:53:45;;;;;;;;;;;14.20;79.00;;;;;;5016091;28;20274;-61
2022/04/27 00:56:11;;;;;;;;;;;14.40;78.60;;;;;;5015772;28;19909;-61
2022/04/27 00:58:37;;;;;;;;;;;14.30;79.40;;;;;;5015559;28;19924;-61
2022/04/27 01:01:02;;;;;;;;;;;14.30;79.80;;;;;;5015574;28;20309;-61
2022/04/27 01:03:28;;;;;;;;;;;14.30;79.80;;;;;;5015166;28;19916;-61
2022/04/27 01:05:54;;;;;;;;;;;14.30;79.90;;;;;;5015955;28;19990;-61
2022/04/27 01:08:23;;;;;;;;;;;14.20;80.20;;;;;;5015964;28;20338;-61
2022/04/27 01:10:49;;;;;;;;;;;14.20;79.70;;;;;;5015194;28;19909;-63
2022/04/27 01:13:15;;;;;;;;;;;14.20;78.90;;;;;;5015067;28;20277;-61
2022/04/27 01:15:41;;;;;;;;;;;14.20;78.50;;;;;;5015139;28;19948;-61
2022/04/27 01:18:09;;;;;;;;;;;14.20;78.30;;;;;;5015256;28;19969;-61
2022/04/27 01:20:38;;;;;;;;;;;14.20;78.00;;;;;;5014912;28;19918;-61
2022/04/27 01:23:05;;;;;;;;;;;14.30;78.20;;;;;;5014857;28;19991;-61
2022/04/27 01:25:45;;;;;;;;;;;14.20;79.10;;;;;;5015042;28;20421;-61
2022/04/27 01:28:11;;;;;;;;;;;14.30;79.60;;;;;;5014968;28;19992;-63
2022/04/27 01:30:37;;;;;;;;;;;14.10;78.60;;;;;;5017333;28;19952;-60
2022/04/27 01:33:07;;;;;;;;;;;14.00;80.00;;;;;;5017994;28;19909;-59
2022/04/27 01:35:33;;;;;;;;;;;14.00;80.00;;;;;;5015819;28;19909;-60
2022/04/27 01:38:01;;;;;;;;;;;14.00;80.20;;;;;;5014314;28;19917;-61
2022/04/27 01:40:26;;;;;;;;;;;14.00;81.00;;;;;;5014776;28;20353;-61
2022/04/27 01:42:52;;;;;;;;;;;14.00;79.80;;;;;;5014518;28;19920;-62
2022/04/27 01:45:17;;;;;;;;;;;14.10;80.50;;;;;;5014731;28;20012;-60
2022/04/27 01:47:43;;;;;;;;;;;14.10;80.50;;;;;;5014545;28;19964;-61
2022/04/27 01:50:08;;;;;;;;;;;14.10;80.40;;;;;;5014632;28;19910;-59
2022/04/27 01:55:19;;;;;;;;;;;14.00;81.70;;;;;;5014412;28;19916;-60
2022/04/27 01:57:45;;;;;;;;;;;14.00;80.10;;;;;;5014484;28;19972;-60
2022/04/27 02:00:11;;;;;;;;;;;14.10;80.00;;;;;;5014434;28;20396;-60
2022/04/27 02:02:36;;;;;;;;;;;14.10;77.70;;;;;;5014282;28;19909;-61
2022/04/27 02:05:04;;;;;;;;;;;14.10;76.30;;;;;;5014540;28;19941;-60
2022/04/27 02:07:30;;;;;;;;;;;14.10;73.50;;;;;;5014404;28;20285;-59
2022/04/27 02:09:55;;;;;;;;;;;14.00;72.10;;;;;;5012923;28;19909;-59
2022/04/27 02:12:21;;;;;;;;;;;14.10;71.50;;;;;;5014287;28;19948;-60
2022/04/27 02:14:47;;;;;;;;;;;13.70;71.30;;;;;;5014237;28;19910;-59
2022/04/27 02:17:12;;;;;;;;;;;13.70;70.60;;;;;;5014212;28;19917;-60
2022/04/27 02:19:38;;;;;;;;;;;13.70;71.40;;;;;;5014341;28;20016;-61
2022/04/27 02:22:04;;;;;;;;;;;13.70;70.70;;;;;;5013815;28;20388;-62
2022/04/27 02:24:29;;;;;;;;;;;13.50;68.80;;;;;;5014004;28;19909;-61
2022/04/27 02:26:55;;;;;;;;;;;13.30;67.70;;;;;;5014203;28;19914;-61
2022/04/27 02:29:24;;;;;;;;;;;13.30;69.20;;;;;;5014044;28;19932;-61
2022/04/27 02:31:50;;;;;;;;;;;13.30;68.30;;;;;;5014042;28;19910;-60
2022/04/27 02:34:16;;;;;;;;;;;13.20;68.00;;;;;;5014833;28;20372;-61
2022/04/27 02:36:41;;;;;;;;;;;13.10;68.20;;;;;;5015016;28;19918;-61
2022/04/27 02:39:07;;;;;;;;;;;12.90;68.60;;;;;;5013791;28;19960;-61
2022/04/27 02:41:32;;;;;;;;;;;13.00;69.60;;;;;;5013922;28;19916;-61
2022/04/27 02:43:58;;;;;;;;;;;13.00;68.90;;;;;;5013854;28;19956;-61
2022/04/27 02:46:23;;;;;;;;;;;13.00;68.20;;;;;;5014200;28;19914;-61
2022/04/27 02:51:48;;;;;;;;;;;13.10;69.10;;;;;;5017836;28;19920;-62
2022/04/27 02:54:14;;;;;;;;;;;13.10;69.50;;;;;;5018251;28;19964;-61
2022/04/27 02:56:40;;;;;;;;;;;13.10;69.90;;;;;;5017867;28;20395;-61
2022/04/27 02:59:05;;;;;;;;;;;13.00;69.20;;;;;;5018009;28;19925;-60
2022/04/27 03:01:31;;;;;;;;;;;12.90;68.20;;;;;;5017668;28;20385;-61
2022/04/27 03:03:57;;;;;;;;;;;12.90;69.20;;;;;;5018102;28;19979;-61
2022/04/27 03:06:22;;;;;;;;;;;13.10;69.50;;;;;;5017781;28;19917;-61
2022/04/27 03:08:48;;;;;;;;;;;13.00;68.30;;;;;;5017395;28;19913;-60
2022/04/27 03:11:13;;;;;;;;;;;13.00;66.20;;;;;;5017661;28;19987;-59
2022/04/27 03:13:39;;;;;;;;;;;13.00;66.50;;;;;;5017414;28;19909;-61
2022/04/27 03:16:04;;;;;;;;;;;13.10;67.50;;;;;;5017451;28;19920;-61
2022/04/27 03:18:30;;;;;;;;;;;13.20;66.20;;;;;;5017342;28;19918;-60
2022/04/27 03:20:55;;;;;;;;;;;13.20;66.20;;;;;;5017190;28;19917;-61
2022/04/27 03:23:21;;;;;;;;;;;13.10;66.10;;;;;;5017242;28;19929;-63
2022/04/27 03:25:46;;;;;;;;;;;13.10;65.50;;;;;;5017408;28;19960;-60
2022/04/27 03:28:12;;;;;;;;;;;13.10;65.50;;;;;;5017035;28;19914;-61
2022/04/27 03:30:38;;;;;;;;;;;13.10;66.80;;;;;;5017206;28;20301;-61
2022/04/27 03:33:03;;;;;;;;;;;13.10;64.90;;;;;;5017286;28;19957;-61
2022/04/27 03:35:29;;;;;;;;;;;13.10;66.50;;;;;;5017259;28;19910;-61
2022/04/27 03:37:55;;;;;;;;;;;13.20;66.10;;;;;;5016863;28;19925;-61
2022/04/27 03:40:22;;;;;;;;;;;13.20;66.00;;;;;;5016815;28;19910;-62
2022/04/27 03:42:47;;;;;;;;;;;13.20;64.70;;;;;;5017056;28;19971;-59
2022/04/27 03:45:13;;;;;;;;;;;13.10;65.30;;;;;;5017107;28;20388;-60
2022/04/27 03:47:39;;;;;;;;;;;13.10;65.60;;;;;;5017160;28;20293;-60
2022/04/27 03:50:05;;;;;;;;;;;13.20;66.20;;;;;;5017011;28;20320;-62
2022/04/27 03:52:30;;;;;;;;;;;12.90;65.30;;;;;;5016612;28;19909;-60
2022/04/27 03:55:00;;;;;;;;;;;12.90;65.70;;;;;;5016626;28;19909;-61
2022/04/27 03:57:26;;;;;;;;;;;12.90;66.60;;;;;;5016962;28;19921;-61
2022/04/27 03:59:51;;;;;;;;;;;12.70;67.30;;;;;;5016421;28;20350;-61
2022/04/27 04:02:17;;;;;;;;;;;12.70;67.20;;;;;;5016655;28;19997;-61
2022/04/27 04:04:43;;;;;;;;;;;12.60;67.60;;;;;;5016283;28;20349;-59
2022/04/27 04:07:08;;;;;;;;;;;12.70;68.50;;;;;;5016487;28;19913;-60
2022/04/27 04:09:34;;;;;;;;;;;12.50;70.60;;;;;;5016438;28;19916;-60
2022/04/27 04:11:59;;;;;;;;;;;12.30;72.20;;;;;;5016554;28;19909;-60
2022/04/27 04:14:25;;;;;;;;;;;12.20;73.90;;;;;;5016618;28;19957;-61
2022/04/27 04:16:50;;;;;;;;;;;12.00;74.80;;;;;;5016246;28;19909;-62
2022/04/27 04:19:17;;;;;;;;;;;12.20;75.10;;;;;;5016201;28;19917;-60
2022/04/27 04:21:42;;;;;;;;;;;12.30;74.40;;;;;;5016270;28;20016;-60
2022/04/27 04:24:08;;;;;;;;;;;12.40;72.40;;;;;;5015969;28;19956;-60
2022/04/27 04:29:17;;;;;;;;;;;12.40;71.20;;;;;;5016202;28;19916;-60
2022/04/27 04:31:43;;;;;;;;;;;12.30;71.10;;;;;;5015834;28;19909;-61
2022/04/27 04:34:08;;;;;;;;;;;12.30;70.50;;;;;;5016141;28;19944;-61
2022/04/27 04:36:34;;;;;;;;;;;12.30;70.20;;;;;;5016054;28;19949;-60
2022/04/27 04:39:00;;;;;;;;;;;12.50;71.00;;;;;;5015926;28;19917;-60
2022/04/27 04:41:25;;;;;;;;;;;12.40;69.80;;;;;;5016201;28;20310;-61
2022/04/27 04:43:51;;;;;;;;;;;12.40;69.80;;;;;;5015662;28;19910;-60
2022/04/27 04:46:16;;;;;;;;;;;12.50;68.30;;;;;;5015646;28;19909;-60
2022/04/27 04:48:42;;;;;;;;;;;12.50;68.90;;;;;;5015497;28;19921;-60
2022/04/27 04:51:07;;;;;;;;;;;12.60;70.30;;;;;;5015667;28;19933;-60
2022/04/27 04:53:33;;;;;;;;;;;12.60;67.90;;;;;;5015439;28;19948;-61
2022/04/27 04:55:58;;;;;;;;;;;12.70;67.10;;;;;;5015627;28;20004;-60
2022/04/27 04:58:24;;;;;;;;;;;12.70;66.90;;;;;;5015359;28;19965;-60
2022/04/27 05:00:49;;;;;;;;;;;12.70;65.80;;;;;;5015408;28;19916;-61
2022/04/27 05:03:16;;;;;;;;;;;12.80;67.20;;;;;;5015219;28;19935;-60
2022/04/27 05:05:41;;;;;;;;;;;12.90;65.80;;;;;;5015413;28;19913;-60
2022/04/27 05:08:09;;;;;;;;;;;12.80;66.00;;;;;;5015328;28;20374;-60
2022/04/27 05:10:34;;;;;;;;;;;12.80;64.70;;;;;;5015245;28;19956;-59
2022/04/27 05:13:00;;;;;;;;;;;12.90;64.60;;;;;;5014409;28;19910;-60
2022/04/27 05:15:26;;;;;;;;;;;12.90;64.50;;;;;;5015936;28;20274;-61
2022/04/27 05:17:51;;;;;;;;;;;13.00;64.00;;;;;;5015009;28;19935;-61
2022/04/27 05:20:17;;;;;;;;;;;12.90;62.40;;;;;;5015295;28;20265;-59
2022/04/27 05:22:42;;;;;;;;;;;13.00;62.10;;;;;;5014783;28;19963;-61
2022/04/27 05:25:08;;;;;;;;;;;13.00;63.60;;;;;;5015229;28;19913;-60
2022/04/27 05:27:38;;;;;;;;;;;13.00;63.50;;;;;;5015150;28;19936;-60
2022/04/27 05:32:48;;;;;;;;;;;13.20;63.70;;;;;;5015072;28;19925;-59
2022/04/27 05:35:15;;;;;;;;;;;13.00;61.90;;;;;;5014739;28;19909;-60
2022/04/27 05:37:41;;;;;;;;;;;13.00;62.80;;;;;;5014496;28;20381;-60
2022/04/27 05:40:06;;;;;;;;;;;13.00;63.70;;;;;;5013445;28;19910;-60
2022/04/27 05:42:32;;;;;;;;;;;13.10;62.60;;;;;;5014457;28;19913;-60
2022/04/27 05:44:58;;;;;;;;;;;13.00;63.40;;;;;;5014496;28;20377;-59
2022/04/27 05:47:25;;;;;;;;;;;13.10;63.20;;;;;;5014445;28;19909;-59
2022/04/27 05:49:51;;;;;;;;;;;13.20;63.20;;;;;;5014468;28;19910;-58
2022/04/27 05:52:17;;;;;;;;;;;13.30;62.30;;;;;;5014449;28;19956;-60
2022/04/27 05:54:42;;;;;;;;;;;13.30;61.90;;;;;;5014572;28;19913;-59
2022/04/27 05:57:08;;;;;;;;;;;13.20;62.90;;;;;;5014222;28;19952;-60
2022/04/27 05:59:34;;;;;;;;;;;13.20;63.10;;;;;;5014185;28;19940;-59
2022/04/27 06:01:59;;;;;;;;;;;13.30;62.90;;;;;;5014246;28;19909;-58
2022/04/27 06:04:26;;;;;;;;;;;13.40;64.00;;;;;;5013543;28;19910;-58
2022/04/27 06:06:55;;;;;;;;;;;13.50;72.20;;;;;;5014301;28;19967;-58
2022/04/27 06:09:20;;;;;;;;;;;13.90;65.30;;;;;;5013950;28;19909;-58
2022/04/27 06:11:46;;;;;;;;;;;13.90;61.50;;;;;;5014024;28;19978;-59
2022/04/27 06:14:11;;;;;;;;;;;13.90;62.20;;;;;;5014104;28;19918;-58
2022/04/27 06:16:37;;;;;;;;;;;14.00;60.90;;;;;;5013902;28;19912;-58
2022/04/27 06:19:03;;;;;;;;;;;14.30;61.70;;;;;;5013806;28;20008;-59
2022/04/27 06:21:31;;;;;;;;;;;14.70;61.10;;;;;;5013950;28;19932;-58
2022/04/27 06:23:58;;;;;;;;;;;15.00;59.70;;;;;;5013900;28;20012;-58
2022/04/27 06:26:24;;;;;;;;;;;15.10;58.90;;;;;;5013797;28;19909;-59
2022/04/27 06:28:49;;;;;;;;;;;14.80;58.20;;;;;;5013693;28;19956;-60
2022/04/27 06:31:15;;;;;;;;;;;14.40;56.30;;;;;;5013667;28;19909;-59
2022/04/27 06:33:40;;;;;;;;;;;14.10;58.50;;;;;;5014772;28;19913;-60
2022/04/27 06:36:06;;;;;;;;;;;14.00;58.70;;;;;;5013804;28;19914;-59
2022/04/27 06:38:32;;;;;;;;;;;13.80;58.50;;;;;;5013707;28;20385;-63
2022/04/27 06:40:57;;;;;;;;;;;13.90;58.70;;;;;;5013915;28;19921;-63
2022/04/27 06:43:23;;;;;;;;;;;13.90;59.10;;;;;;5013599;28;19917;-61
2022/04/27 06:45:48;;;;;;;;;;;13.90;62.30;;;;;;5013961;28;19909;-60
2022/04/27 06:48:14;;;;;;;;;;;14.00;59.20;;;;;;5013902;28;19988;-61
2022/04/27 06:50:39;;;;;;;;;;;14.40;58.50;;;;;;5013822;28;19916;-60
2022/04/27 06:53:05;;;;;;;;;;;14.40;58.30;;;;;;5013840;28;19909;-58
2022/04/27 06:55:31;;;;;;;;;;;14.30;57.20;;;;;;5013889;28;19910;-58
2022/04/27 06:57:56;;;;;;;;;;;14.20;58.10;;;;;;5013540;28;19918;-61
2022/04/27 07:00:22;;;;;;;;;;;14.10;58.20;;;;;;5012412;28;19968;-61
2022/04/27 07:02:48;;;;;;;;;;;14.20;58.60;;;;;;5013771;28;19916;-58
2022/04/27 07:05:17;;;;;;;;;;;14.20;58.40;;;;;;5013450;28;20361;-57
2022/04/27 07:07:43;;;;;;;;;;;14.40;57.40;;;;;;5013634;28;19913;-59
2022/04/27 07:10:09;;;;;;;;;;;14.50;57.70;;;;;;5013502;28;20321;-59
2022/04/27 07:12:34;;;;;;;;;;;14.70;57.20;;;;;;5013403;28;19914;-57
2022/04/27 07:15:00;;;;;;;;;;;14.90;56.90;;;;;;5013672;28;19910;-58
2022/04/27 07:17:25;;;;;;;;;;;15.10;56.50;;;;;;5013540;28;19913;-57
2022/04/27 07:19:51;;;;;;;;;;;15.30;56.00;;;;;;5013468;28;19914;-60
2022/04/27 07:22:16;;;;;;;;;;;15.50;55.10;;;;;;5013296;28;19917;-62
2022/04/27 07:24:44;;;;;;;;;;;15.50;54.20;;;;;;5013398;28;19917;-61
2022/04/27 07:27:10;;;;;;;;;;;15.60;54.40;;;;;;5012949;28;19956;-60
2022/04/27 07:29:35;;;;;;;;;;;15.60;54.70;;;;;;5013364;28;20309;-60
2022/04/27 07:32:01;;;;;;;;;;;15.60;54.60;;;;;;5012862;28;19917;-59
2022/04/27 07:34:27;;;;;;;;;;;15.60;54.20;;;;;;5013527;28;19909;-65
2022/04/27 07:36:53;;;;;;;;;;;15.60;53.40;;;;;;5016682;28;19913;-61
2022/04/27 07:39:18;;;;;;;;;;;15.50;54.00;;;;;;5016692;28;19959;-59
2022/04/27 07:41:47;;;;;;;;;;;15.60;53.10;;;;;;5016529;28;19964;-59
2022/04/27 07:44:12;;;;;;;;;;;15.60;54.20;;;;;;5016880;28;19913;-57
2022/04/27 07:46:38;;;;;;;;;;;16.00;53.40;;;;;;5016553;28;19992;-60
2022/04/27 07:49:03;;;;;;;;;;;15.90;52.60;;;;;;5016522;28;20379;-61
2022/04/27 07:51:29;;;;;;;;;;;15.90;53.60;;;;;;5016716;28;20340;-62
2022/04/27 07:53:54;;;;;;;;;;;15.90;52.60;;;;;;5016687;28;20361;-62
2022/04/27 07:56:20;;;;;;;;;;;16.00;52.80;;;;;;5017136;28;20278;-60
2022/04/27 07:58:46;;;;;;;;;;;16.20;52.70;;;;;;5016695;28;19978;-61
2022/04/27 08:01:11;;;;;;;;;;;16.20;53.30;;;;;;5016318;28;19948;-59
2022/04/27 08:03:37;;;;;;;;;;;16.10;53.60;;;;;;5016255;28;19909;-60
2022/04/27 08:06:04;;;;;;;;;;;15.90;53.60;;;;;;5016511;28;20293;-59
2022/04/27 08:08:33;;;;;;;;;;;15.90;53.50;;;;;;5016050;28;19910;-61
2022/04/27 08:10:58;;;;;;;;;;;15.60;54.00;;;;;;5016324;28;19956;-58
2022/04/27 08:13:24;;;;;;;;;;;15.50;54.30;;;;;;5016022;28;19909;-62
2022/04/27 08:15:50;;;;;;;;;;;15.40;54.30;;;;;;5016055;28;20004;-61
2022/04/27 08:18:15;;;;;;;;;;;15.20;54.80;;;;;;5015972;28;19918;-61
2022/04/27 08:23:29;;;;;;;;;;;15.10;55.70;;;;;;5016305;28;19968;-62
2022/04/27 08:26:03;;;;;;;;;;;15.00;55.70;;;;;;4997885;28;20223;-60
2022/04/27 08:28:29;;;;;;;;;;;15.00;55.50;;;;;;5015591;28;19913;-59
2022/04/27 08:30:54;;;;;;;;;;;15.10;56.30;;;;;;5015681;28;20004;-64
2022/04/27 08:33:20;;;;;;;;;;;15.20;55.50;;;;;;5015881;28;20016;-60
2022/04/27 08:35:46;;;;;;;;;;;15.20;56.00;;;;;;5015619;28;20312;-66
2022/04/27 08:38:12;;;;;;;;;;;15.10;56.10;;;;;;5015577;28;19918;-64
2022/04/27 08:40:40;;;;;;;;;;;15.10;57.00;;;;;;5015762;28;19979;-61
2022/04/27 08:43:06;;;;;;;;;;;15.40;55.80;;;;;;5014321;28;19916;-64
2022/04/27 08:45:33;;;;;;;;;;;15.50;54.20;;;;;;5015125;28;19964;-60
2022/04/27 08:47:59;;;;;;;;;;;15.60;55.10;;;;;;5014831;28;19924;-63
2022/04/27 08:50:25;;;;;;;;;;;15.90;53.30;;;;;;5015138;28;19910;-58
2022/04/27 08:52:51;;;;;;;;;;;16.00;53.30;;;;;;5015358;28;19925;-59
2022/04/27 08:55:18;;;;;;;;;;;15.90;53.00;;;;;;5015191;28;20359;-61
2022/04/27 08:57:44;;;;;;;;;;;15.80;53.70;;;;;;5015168;28;19918;-58
2022/04/27 09:00:11;;;;;;;;;;;15.80;53.00;;;;;;5013257;28;19913;-59
2022/04/27 09:02:37;;;;;;;;;;;15.70;54.10;;;;;;5013756;28;19999;-61
2022/04/27 09:05:05;;;;;;;;;;;15.70;53.60;;;;;;5014842;28;19929;-61
2022/04/27 09:07:41;;;;;;;;;;;15.80;54.20;;;;;;5014710;28;19980;-58
2022/04/27 09:10:07;;;;;;;;;;;16.00;54.70;;;;;;5014885;28;19956;-60
2022/04/27 09:12:34;;;;;;;;;;;16.20;53.70;;;;;;5014918;28;19936;-58
2022/04/27 09:15:04;;;;;;;;;;;16.50;52.90;;;;;;5014791;28;19980;-58
2022/04/27 09:22:59;;;;;;;;;;;16.50;53.40;;;;;;5014716;28;19939;-58
2022/04/27 09:25:32;;;;;;;;;;;16.40;53.70;;;;;;5015072;28;20368;-58
2022/04/27 09:27:59;;;;;;;;;;;16.30;54.10;;;;;;5014585;28;20016;-59
2022/04/27 09:30:28;;;;;;;;;;;16.30;54.60;;;;;;5014830;28;19916;-58
2022/04/27 09:32:53;;;;;;;;;;;16.20;54.50;;;;;;5014181;28;19916;-57
2022/04/27 09:35:29;;;;;;;;;;;16.40;53.90;;;;;;5015177;28;20004;-57
2022/04/27 09:37:55;;;;;;;;;;;16.50;54.10;;;;;;5014469;28;20423;-59
2022/04/27 09:40:21;;;;;;;;;;;16.60;54.40;;;;;;5014458;28;19961;-57
2022/04/27 09:42:46;;;;;;;;;;;16.60;53.60;;;;;;5014243;28;19976;-62
2022/04/27 09:45:19;;;;;;;;;;;16.50;53.60;;;;;;5014379;28;19996;-57
2022/04/27 09:47:48;;;;;;;;;;;16.50;52.50;;;;;;5014263;28;19909;-57
2022/04/27 09:50:15;;;;;;;;;;;16.70;55.10;;;;;;5014426;28;20369;-60
2022/04/27 09:52:40;;;;;;;;;;;16.80;54.90;;;;;;5013521;28;19917;-57
2022/04/27 09:55:06;;;;;;;;;;;17.00;54.10;;;;;;5014006;28;19913;-58
2022/04/27 09:57:35;;;;;;;;;;;17.00;52.60;;;;;;5012664;28;19921;-60
2022/04/27 10:00:01;;;;;;;;;;;17.10;52.90;;;;;;5012813;28;19913;-59
2022/04/27 10:02:30;;;;;;;;;;;16.90;50.60;;;;;;5013810;28;19909;-59
2022/04/27 10:04:56;;;;;;;;;;;16.80;52.10;;;;;;5013928;28;20007;-60
2022/04/27 10:07:23;;;;;;;;;;;16.90;51.70;;;;;;5013966;28;19914;-58
2022/04/27 10:09:52;;;;;;;;;;;17.10;53.00;;;;;;5014217;28;20377;-61
2022/04/27 10:12:18;;;;;;;;;;;17.30;52.30;;;;;;5014202;28;19910;-61
2022/04/27 10:14:44;;;;;;;;;;;17.40;51.80;;;;;;5013915;28;19909;-58
2022/04/27 10:17:13;;;;;;;;;;;17.50;51.20;;;;;;5013980;28;20357;-59
2022/04/27 10:19:48;;;;;;;;;;;17.60;51.50;;;;;;5013845;28;19913;-58
2022/04/27 10:22:24;;;;;;;;;;;17.60;50.50;;;;;;5013848;28;19921;-59
2022/04/27 10:24:50;;;;;;;;;;;17.80;50.00;;;;;;5014093;28;20292;-59
2022/04/27 10:27:34;;;;;;;;;;;18.00;50.70;;;;;;5013906;28;20366;-65
2022/04/27 10:30:01;;;;;;;;;;;18.00;49.90;;;;;;5014061;28;20419;-59
2022/04/27 10:32:39;;;;;;;;;;;18.10;50.40;;;;;;5013606;28;19937;-58
2022/04/27 10:35:21;;;;;;;;;;;18.20;48.90;;;;;;5014231;28;19930;-57
2022/04/27 10:37:48;;;;;;;;;;;18.20;48.40;;;;;;5013864;28;19913;-56
2022/04/27 10:40:25;;;;;;;;;;;18.40;48.40;;;;;;5013855;28;20000;-56
2022/04/27 10:42:51;;;;;;;;;;;18.40;48.70;;;;;;5013528;28;19909;-58
2022/04/27 10:45:22;;;;;;;;;;;18.50;49.20;;;;;;5013911;28;20436;-62
2022/04/27 10:47:47;;;;;;;;;;;18.60;47.70;;;;;;5013766;28;20387;-65
2022/04/27 10:50:13;;;;;;;;;;;18.50;47.50;;;;;;5013697;28;20012;-65
2022/04/27 10:52:52;;;;;;;;;;;18.50;47.40;;;;;;5013673;28;19910;-58
2022/04/27 10:55:40;;;;;;;;;;;18.50;47.00;;;;;;5013476;28;20003;-61
2022/04/27 10:58:12;;;;;;;;;;;18.70;47.30;;;;;;5013650;28;19971;-59
2022/04/27 11:00:57;;;;;;;;;;;18.80;46.60;;;;;;5013638;28;20000;-61
2022/04/27 11:03:22;;;;;;;;;;;18.60;46.20;;;;;;5011356;28;19917;-60
2022/04/27 11:05:49;;;;;;;;;;;18.60;46.10;;;;;;5013282;28;19971;-61
2022/04/27 11:08:34;;;;;;;;;;;18.70;46.20;;;;;;5013495;28;19916;-65
2022/04/27 11:11:03;;;;;;;;;;;18.90;46.60;;;;;;5016186;28;19963;-62
2022/04/27 11:13:32;;;;;;;;;;;18.90;45.10;;;;;;5017199;28;20404;-59
2022/04/27 11:16:11;;;;;;;;;;;18.70;43.90;;;;;;5017038;28;20381;-60
2022/04/27 11:18:55;;;;;;;;;;;18.60;44.30;;;;;;5017080;28;20020;-62
2022/04/27 11:21:21;;;;;;;;;;;18.80;44.30;;;;;;5016765;28;19956;-61
2022/04/27 11:23:46;;;;;;;;;;;18.80;42.70;;;;;;5016872;28;19964;-59
2022/04/27 11:26:13;;;;;;;;;;;18.90;42.90;;;;;;5017103;28;20365;-56
2022/04/27 11:28:41;;;;;;;;;;;19.00;43.20;;;;;;5017039;28;20336;-57
2022/04/27 11:31:07;;;;;;;;;;;19.20;42.50;;;;;;5016945;28;19976;-59
2022/04/27 11:33:39;;;;;;;;;;;19.20;43.00;;;;;;5016952;28;20353;-57
2022/04/27 11:36:04;;;;;;;;;;;19.30;42.70;;;;;;5016562;28;20001;-59
2022/04/27 11:38:37;;;;;;;;;;;19.30;42.20;;;;;;5016972;28;20016;-60
2022/04/27 11:41:12;;;;;;;;;;;19.30;41.90;;;;;;5016765;28;19921;-60
2022/04/27 11:43:38;;;;;;;;;;;19.20;41.30;;;;;;5016965;28;19960;-57
2022/04/27 11:46:04;;;;;;;;;;;19.20;40.20;;;;;;5016730;28;19956;-60
2022/04/27 11:48:30;;;;;;;;;;;19.20;40.40;;;;;;5015523;28;19910;-59
2022/04/27 11:51:00;;;;;;;;;;;19.20;39.90;;;;;;5016465;28;19910;-61
2022/04/27 11:53:26;;;;;;;;;;;19.20;38.90;;;;;;5016280;28;19959;-56
2022/04/27 11:55:52;;;;;;;;;;;19.20;39.80;;;;;;5016302;28;20009;-57
2022/04/27 11:58:25;;;;;;;;;;;19.10;40.90;;;;;;5013161;28;19918;-59
2022/04/27 12:00:55;;;;;;;;;;;18.90;41.10;;;;;;5014216;28;20324;-63
2022/04/27 12:03:22;;;;;;;;;;;19.00;42.00;;;;;;5014514;28;20011;-58
2022/04/27 12:05:51;;;;;;;;;;;19.30;41.90;;;;;;4995225;28;20282;-59
2022/04/27 12:08:24;;;;;;;;;;;19.50;38.80;;;;;;4997727;28;20455;-61
2022/04/27 12:10:49;;;;;;;;;;;19.20;40.00;;;;;;5013983;28;19920;-60
2022/04/27 12:13:18;;;;;;;;;;;19.50;39.50;;;;;;5014628;28;19914;-61
2022/04/27 12:15:47;;;;;;;;;;;19.60;39.20;;;;;;5012689;28;19917;-60
2022/04/27 12:18:14;;;;;;;;;;;19.30;39.70;;;;;;5015031;28;20012;-60
2022/04/27 12:20:40;;;;;;;;;;;19.10;40.70;;;;;;5014496;28;19910;-59
2022/04/27 12:23:08;;;;;;;;;;;19.10;40.70;;;;;;5000467;28;19936;-60
2022/04/27 12:25:36;;;;;;;;;;;19.40;41.40;;;;;;4994755;28;19910;-60
2022/04/27 12:28:05;;;;;;;;;;;19.50;40.90;;;;;;4995152;28;20293;-62
2022/04/27 12:30:31;;;;;;;;;;;19.80;40.40;;;;;;4994905;28;19917;-60
2022/04/27 12:32:57;;;;;;;;;;;19.70;38.30;;;;;;4994565;28;19909;-60
2022/04/27 12:38:15;;;;;;;;;;;19.50;39.30;;;;;;4994495;28;19937;-62
2022/04/27 12:40:42;;;;;;;;;;;19.60;38.40;;;;;;4994890;28;19910;-60
2022/04/27 12:43:08;;;;;;;;;;;19.50;40.40;;;;;;4994359;28;19967;-63
2022/04/27 12:45:34;;;;;;;;;;;19.50;35.40;;;;;;4994646;28;19922;-60
2022/04/27 12:48:00;;;;;;;;;;;19.30;36.50;;;;;;4994167;28;19917;-63
2022/04/27 12:50:26;;;;;;;;;;;19.50;37.10;;;;;;4994600;28;19921;-68
2022/04/27 12:53:05;;;;;;;;;;;19.30;36.80;;;;;;4994534;28;20219;-65
2022/04/27 12:55:30;;;;;;;;;;;19.20;39.00;;;;;;4994391;28;19913;-59
2022/04/27 12:57:56;;;;;;;;;;;19.40;39.00;;;;;;4994225;28;20282;-62
2022/04/27 13:00:23;;;;;;;;;;;19.50;37.90;;;;;;4994508;28;19910;-72
2022/04/27 13:02:49;;;;;;;;;;;19.50;38.00;;;;;;4994012;28;19918;-63
2022/04/27 13:05:14;;;;;;;;;;;19.50;35.70;;;;;;4993214;28;20271;-64
2022/04/27 13:07:40;;;;;;;;;;;19.60;35.60;;;;;;4994048;28;19917;-64
2022/04/27 13:12:51;;;;;;;;;;;19.60;37.90;;;;;;4998366;28;19916;-65
2022/04/27 13:15:17;;;;;;;;;;;19.60;37.10;;;;;;4998444;28;19913;-65
2022/04/27 13:17:42;;;;;;;;;;;19.50;36.90;;;;;;4994115;28;19917;-59
2022/04/27 13:20:09;;;;;;;;;;;19.70;36.90;;;;;;4994258;28;19910;-60
2022/04/27 13:22:35;;;;;;;;;;;20.00;37.90;;;;;;4994096;28;20012;-59
2022/04/27 13:25:00;;;;;;;;;;;19.80;36.00;;;;;;4994118;28;19984;-62
2022/04/27 13:27:26;;;;;;;;;;;19.80;38.20;;;;;;4995297;28;19916;-63
2022/04/27 13:29:52;;;;;;;;;;;20.00;36.40;;;;;;4994920;28;19910;-60
2022/04/27 13:32:17;;;;;;;;;;;20.00;35.60;;;;;;4994423;28;19916;-63
2022/04/27 13:34:43;;;;;;;;;;;20.10;36.30;;;;;;4995425;28;20370;-60
2022/04/27 13:37:08;;;;;;;;;;;20.10;34.70;;;;;;4994998;28;19956;-64
2022/04/27 13:39:34;;;;;;;;;;;20.00;35.10;;;;;;4995376;28;20362;-66
2022/04/27 13:42:00;;;;;;;;;;;19.90;34.10;;;;;;4994701;28;19956;-62
2022/04/27 13:44:28;;;;;;;;;;;19.90;35.80;;;;;;4994787;28;19952;-60
2022/04/27 13:46:54;;;;;;;;;;;19.80;35.80;;;;;;4995126;28;19909;-64
2022/04/27 13:49:19;;;;;;;;;;;19.90;37.10;;;;;;5013680;28;20039;-60
2022/04/27 13:51:46;;;;;;;;;;;20.10;36.20;;;;;;5002853;28;20387;-62
2022/04/27 13:54:14;;;;;;;;;;;20.10;35.40;;;;;;5004931;28;19917;-62
2022/04/27 13:56:39;;;;;;;;;;;20.30;36.30;;;;;;5004221;28;19910;-63
2022/04/27 13:59:05;;;;;;;;;;;20.50;35.40;;;;;;5013439;28;19949;-65
2022/04/27 14:01:31;;;;;;;;;;;20.60;34.50;;;;;;5009299;28;19964;-64
2022/04/27 14:03:56;;;;;;;;;;;20.30;35.10;;;;;;5014164;28;19971;-62
2022/04/27 14:06:22;;;;;;;;;;;20.20;35.10;;;;;;5013668;28;20214;-62
2022/04/27 14:08:47;;;;;;;;;;;20.00;35.50;;;;;;5013546;28;19909;-59
2022/04/27 14:13:57;;;;;;;;;;;20.20;36.60;;;;;;5012573;28;19925;-62
2022/04/27 14:19:07;;;;;;;;;;;20.10;35.50;;;;;;5011926;28;20392;-62
2022/04/27 14:21:32;;;;;;;;;;;20.10;36.40;;;;;;5013468;28;19909;-57
2022/04/27 14:23:58;;;;;;;;;;;20.20;36.80;;;;;;5013171;28;19925;-61
2022/04/27 14:26:23;;;;;;;;;;;20.20;37.60;;;;;;5013902;28;19914;-61
2022/04/27 14:28:49;;;;;;;;;;;20.10;37.00;;;;;;5006269;28;19959;-59
2022/04/27 14:31:15;;;;;;;;;;;20.20;37.50;;;;;;5008336;28;19910;-60
2022/04/27 14:33:40;;;;;;;;;;;20.10;36.30;;;;;;5018505;28;19909;-60
2022/04/27 14:36:06;;;;;;;;;;;20.00;37.40;;;;;;5011179;28;19996;-60
2022/04/27 14:38:32;;;;;;;;;;;20.10;37.90;;;;;;5003270;28;19918;-61
2022/04/27 14:40:57;;;;;;;;;;;20.30;37.00;;;;;;5002258;28;19934;-60
2022/04/27 14:43:23;;;;;;;;;;;20.20;36.70;;;;;;5013591;28;19921;-60